Time;durP1;ratioP1;P1;durP2;ratioP2;P2;SDS_P1;SDS_P2;PMS_P1;PMS_P2;Temp;Humidity;BMP_temperature;BMP_pressure;BME280_temperature;BME280_humidity;BME280_pressure;Samples;Min_cycle;Max_cycle;Signal;HPM_P1;HPM_P2
2023/04/14 05:28:18;;;;;;;4.10;3.37;;;;;;;;;;6304548;22;1392198;-91
2023/04/14 06:23:31;;;;;;;3.83;3.27;;;;;;;;;;6133661;23;20171;-89
2023/04/14 06:28:36;;;;;;;7.87;4.87;;;;;;;;;;6120748;23;20511;-89
2023/04/14 06:38:25;;;;;;;4.53;4.03;;;;;;;;;;6129555;23;20178;-89
2023/04/14 06:41:32;;;;;;;6.33;3.97;;;;;;;;;;6176513;23;20176;-90
2023/04/14 06:44:38;;;;;;;10.77;7.77;;;;;;;;;;6271703;22;20504;-90
2023/04/14 06:47:42;;;;;;;16.03;10.73;;;;;;;;;;6282179;22;20150;-89
2023/04/14 06:50:56;;;;;;;7.27;5.17;;;;;;;;;;6282441;22;20472;-90
2023/04/14 06:54:00;;;;;;;11.60;6.87;;;;;;;;;;6260330;22;20186;-90
2023/04/14 06:57:04;;;;;;;6.73;6.03;;;;;;;;;;6265046;22;20154;-88
2023/04/14 07:00:09;;;;;;;7.47;6.73;;;;;;;;;;6264810;22;20158;-89
2023/04/14 07:03:33;;;;;;;7.03;5.60;;;;;;;;;;6287495;22;20182;-88
2023/04/14 07:06:36;;;;;;;34.83;21.90;;;;;;;;;;6254794;22;20166;-89
2023/04/14 07:10:11;;;;;;;18.00;10.10;;;;;;;;;;6255504;22;20165;-89
2023/04/14 07:13:23;;;;;;;15.30;9.60;;;;;;;;;;6265893;22;20198;-89
2023/04/14 07:16:27;;;;;;;124.27;55.40;;;;;;;;;;6264971;22;20456;-90
2023/04/14 07:19:31;;;;;;;54.63;28.27;;;;;;;;;;6282387;22;20160;-89
2023/04/14 07:22:35;;;;;;;24.73;13.57;;;;;;;;;;6271973;22;20161;-89
2023/04/14 07:25:40;;;;;;;13.10;9.33;;;;;;;;;;6282081;22;20154;-89
2023/04/14 07:28:44;;;;;;;6.17;5.30;;;;;;;;;;6264622;22;20154;-90
2023/04/14 07:31:48;;;;;;;7.50;5.00;;;;;;;;;;6264369;22;20185;-90
2023/04/14 07:34:52;;;;;;;8.77;5.50;;;;;;;;;;6256040;22;20186;-90
2023/04/14 07:37:56;;;;;;;14.80;9.80;;;;;;;;;;6272136;22;20170;-90
2023/04/14 07:41:04;;;;;;;19.00;14.27;;;;;;;;;;6254148;22;20170;-90
2023/04/14 07:44:08;;;;;;;9.83;8.40;;;;;;;;;;6276699;22;20194;-90
2023/04/14 07:47:12;;;;;;;20.73;16.60;;;;;;;;;;6264539;22;20154;-90
2023/04/14 07:50:17;;;;;;;7.60;6.30;;;;;;;;;;6281775;22;20154;-90
2023/04/14 07:53:22;;;;;;;7.47;6.03;;;;;;;;;;6262259;22;20666;-90
2023/04/14 07:56:26;;;;;;;9.63;6.00;;;;;;;;;;6282351;22;20591;-90
2023/04/14 07:59:30;;;;;;;5.87;5.27;;;;;;;;;;6264430;22;20154;-90
2023/04/14 08:02:36;;;;;;;8.40;5.40;;;;;;;;;;6254448;22;20611;-90
2023/04/14 08:05:40;;;;;;;8.17;5.17;;;;;;;;;;6266371;22;20158;-90
2023/04/14 08:08:45;;;;;;;7.93;5.27;;;;;;;;;;6266254;22;20591;-90
2023/04/14 08:11:50;;;;;;;6.50;4.37;;;;;;;;;;6266201;22;20519;-90
2023/04/14 08:14:55;;;;;;;9.77;4.33;;;;;;;;;;6258183;22;20182;-90
2023/04/14 08:18:00;;;;;;;5.60;3.93;;;;;;;;;;6265256;22;20154;-90
2023/04/14 08:21:04;;;;;;;5.03;3.57;;;;;;;;;;6283426;22;20150;-90
2023/04/14 08:24:09;;;;;;;6.17;3.33;;;;;;;;;;6260577;22;20194;-90
2023/04/14 08:27:15;;;;;;;4.07;3.40;;;;;;;;;;6265049;22;20155;-90
2023/04/14 08:30:19;;;;;;;5.97;3.90;;;;;;;;;;6255564;22;20174;-89
2023/04/14 08:33:23;;;;;;;11.37;9.27;;;;;;;;;;6264065;22;20515;-90
2023/04/14 08:36:27;;;;;;;15.27;11.77;;;;;;;;;;6266047;22;20464;-90
2023/04/14 08:39:32;;;;;;;16.13;12.73;;;;;;;;;;6280428;22;20178;-90
2023/04/14 08:43:02;;;;;;;10.77;8.63;;;;;;;;;;6283622;22;20150;-90
2023/04/14 08:46:13;;;;;;;7.70;6.33;;;;;;;;;;6266501;22;20567;-90
2023/04/14 08:49:32;;;;;;;7.67;6.33;;;;;;;;;;6266216;22;20180;-90
2023/04/14 08:52:39;;;;;;;7.07;5.10;;;;;;;;;;6283796;22;20182;-90
2023/04/14 08:55:44;;;;;;;4.80;3.77;;;;;;;;;;6266081;22;20154;-90
2023/04/14 08:58:49;;;;;;;4.30;3.90;;;;;;;;;;6283266;22;20154;-90
2023/04/14 09:01:54;;;;;;;3.90;3.60;;;;;;;;;;6272338;22;20166;-90
2023/04/14 09:04:58;;;;;;;7.57;6.77;;;;;;;;;;6255296;22;20638;-90
2023/04/14 09:08:03;;;;;;;13.17;9.10;;;;;;;;;;6265734;22;20154;-89
2023/04/14 09:11:11;;;;;;;3.93;3.60;;;;;;;;;;6283376;22;20178;-92
2023/04/14 09:14:19;;;;;;;4.90;3.63;;;;;;;;;;6260053;22;20189;-89
2023/04/14 09:17:25;;;;;;;5.93;3.50;;;;;;;;;;6282960;22;20583;-89
2023/04/14 09:20:30;;;;;;;5.07;3.70;;;;;;;;;;6265959;22;20158;-88
2023/04/14 09:23:36;;;;;;;5.73;3.80;;;;;;;;;;6255328;22;20186;-90
2023/04/14 09:26:41;;;;;;;5.13;3.53;;;;;;;;;;6266032;22;20158;-90
2023/04/14 09:29:46;;;;;;;10.57;7.07;;;;;;;;;;6282819;22;20154;-90
2023/04/14 09:32:55;;;;;;;7.53;5.63;;;;;;;;;;6256056;22;20190;-90
2023/04/14 09:35:59;;;;;;;8.93;6.53;;;;;;;;;;6265927;22;20483;-90
2023/04/14 09:39:15;;;;;;;5.73;4.20;;;;;;;;;;6264315;22;20150;-89
2023/04/14 09:42:20;;;;;;;5.87;4.10;;;;;;;;;;6265400;22;20150;-90
2023/04/14 09:46:04;;;;;;;5.07;4.40;;;;;;;;;;6285064;22;20154;-89
2023/04/14 09:49:09;;;;;;;3.60;3.00;;;;;;;;;;6265594;22;20151;-91
2023/04/14 09:52:13;;;;;;;5.30;3.30;;;;;;;;;;6255048;22;20194;-91
2023/04/14 09:55:18;;;;;;;7.70;3.73;;;;;;;;;;6254768;22;20190;-91
2023/04/14 09:58:22;;;;;;;4.07;3.27;;;;;;;;;;6265293;22;20154;-91
2023/04/14 10:01:30;;;;;;;3.93;2.50;;;;;;;;;;6264758;22;20142;-91
2023/04/14 10:04:36;;;;;;;4.13;2.97;;;;;;;;;;6257921;22;20190;-90
2023/04/14 10:07:41;;;;;;;4.63;2.43;;;;;;;;;;6273429;22;20166;-90
2023/04/14 10:10:45;;;;;;;10.10;5.93;;;;;;;;;;6254918;22;20170;-90
2023/04/14 10:13:53;;;;;;;8.23;4.87;;;;;;;;;;6265321;22;20189;-89
2023/04/14 10:17:01;;;;;;;8.37;6.07;;;;;;;;;;6266755;22;20154;-89
2023/04/14 10:20:06;;;;;;;4.53;2.40;;;;;;;;;;6266800;22;20150;-88
2023/04/14 10:23:10;;;;;;;3.57;2.70;;;;;;;;;;6258395;22;20170;-88
2023/04/14 10:26:15;;;;;;;4.60;2.40;;;;;;;;;;6265836;22;20154;-89
2023/04/14 10:29:20;;;;;;;2.37;2.10;;;;;;;;;;6265324;22;20154;-89
2023/04/14 10:32:27;;;;;;;3.70;2.60;;;;;;;;;;6285326;22;20181;-88
2023/04/14 10:35:40;;;;;;;3.20;1.70;;;;;;;;;;6266021;22;20154;-88
2023/04/14 10:38:45;;;;;;;3.47;2.00;;;;;;;;;;6266440;22;20146;-89
2023/04/14 10:41:51;;;;;;;4.50;2.03;;;;;;;;;;6265406;22;20146;-91
2023/04/14 10:45:06;;;;;;;2.67;1.70;;;;;;;;;;6256270;22;20190;-90
2023/04/14 10:48:11;;;;;;;3.03;1.83;;;;;;;;;;6282499;22;20155;-89
2023/04/14 10:51:16;;;;;;;2.30;1.70;;;;;;;;;;6264627;22;20150;-91
2023/04/14 10:54:20;;;;;;;2.60;1.90;;;;;;;;;;6258334;22;20194;-91
2023/04/14 10:57:26;;;;;;;11.27;2.03;;;;;;;;;;6264213;22;20153;-91
2023/04/14 11:00:33;;;;;;;3.53;2.00;;;;;;;;;;6264651;22;20595;-91
2023/04/14 11:03:44;;;;;;;2.60;1.93;;;;;;;;;;6261321;22;20182;-91
2023/04/14 11:06:50;;;;;;;2.97;1.90;;;;;;;;;;6264472;22;20154;-92
2023/04/14 11:10:00;;;;;;;2.33;1.80;;;;;;;;;;6282369;22;20150;-89
2023/04/14 11:13:07;;;;;;;2.63;2.00;;;;;;;;;;6264007;22;20182;-89
2023/04/14 11:16:13;;;;;;;2.83;2.13;;;;;;;;;;6264817;22;20154;-89
2023/04/14 11:19:17;;;;;;;3.47;2.10;;;;;;;;;;6264934;22;20599;-89
2023/04/14 11:22:42;;;;;;;2.60;2.10;;;;;;;;;;6264693;22;20146;-89
2023/04/14 11:25:47;;;;;;;2.40;1.73;;;;;;;;;;6282302;22;20154;-88
2023/04/14 11:28:53;;;;;;;2.43;1.93;;;;;;;;;;6292458;22;20170;-91
2023/04/14 11:32:03;;;;;;;5.03;2.27;;;;;;;;;;6264541;22;20181;-89
2023/04/14 11:35:07;;;;;;;2.60;2.13;;;;;;;;;;6254672;22;20186;-89
2023/04/14 11:38:13;;;;;;;2.60;1.93;;;;;;;;;;6266239;22;20150;-89
2023/04/14 11:41:19;;;;;;;3.33;1.97;;;;;;;;;;6273826;22;20166;-89
2023/04/14 11:44:24;;;;;;;3.10;2.20;;;;;;;;;;6273683;22;20186;-89
2023/04/14 11:47:28;;;;;;;2.07;1.50;;;;;;;;;;6266434;22;20453;-89
2023/04/14 11:50:37;;;;;;;5.57;1.57;;;;;;;;;;6266474;22;20150;-89
2023/04/14 11:53:42;;;;;;;2.47;1.50;;;;;;;;;;6262464;22;20647;-89
2023/04/14 11:56:46;;;;;;;4.10;1.77;;;;;;;;;;6266111;22;20155;-92
2023/04/14 11:59:51;;;;;;;6.50;1.80;;;;;;;;;;6283794;22;20150;-92
2023/04/14 12:02:56;;;;;;;2.77;2.00;;;;;;;;;;6266252;22;20146;-89
2023/04/14 12:06:01;;;;;;;2.77;1.70;;;;;;;;;;6266123;22;20464;-92
2023/04/14 12:09:07;;;;;;;5.30;1.70;;;;;;;;;;6283603;22;20154;-91
2023/04/14 12:12:13;;;;;;;3.73;1.87;;;;;;;;;;6283491;22;20484;-88
2023/04/14 12:15:17;;;;;;;4.97;2.27;;;;;;;;;;6255871;22;20503;-91
2023/04/14 12:18:22;;;;;;;3.03;2.07;;;;;;;;;;6266143;22;20154;-90
2023/04/14 12:21:26;;;;;;;4.77;2.70;;;;;;;;;;6265992;22;20150;-91
2023/04/14 12:24:39;;;;;;;4.27;1.87;;;;;;;;;;6276778;22;20186;-91
2023/04/14 12:27:51;;;;;;;9.20;8.30;;;;;;;;;;6266302;22;20176;-91
2023/04/14 12:31:01;;;;;;;2.90;2.60;;;;;;;;;;6267698;22;20154;-91
2023/04/14 12:34:05;;;;;;;4.27;2.00;;;;;;;;;;6280552;22;20190;-88
2023/04/14 12:37:10;;;;;;;3.23;1.90;;;;;;;;;;6268567;22;20154;-88
2023/04/14 12:40:15;;;;;;;2.37;1.80;;;;;;;;;;6261821;22;20177;-88
2023/04/14 12:43:36;;;;;;;5.53;2.00;;;;;;;;;;6267030;22;20635;-88
2023/04/14 12:46:51;;;;;;;2.47;2.00;;;;;;;;;;6268258;22;20155;-88
2023/04/14 12:49:57;;;;;;;3.10;2.60;;;;;;;;;;6266923;22;20154;-87
2023/04/14 12:53:02;;;;;;;4.87;1.93;;;;;;;;;;6267050;22;20182;-87
2023/04/14 12:56:08;;;;;;;4.27;2.00;;;;;;;;;;6268159;22;20151;-87
2023/04/14 12:59:13;;;;;;;4.17;2.37;;;;;;;;;;6267712;22;20154;-88
2023/04/14 13:02:17;;;;;;;3.10;1.93;;;;;;;;;;6285517;22;20150;-88
2023/04/14 13:05:22;;;;;;;1.63;1.30;;;;;;;;;;6301404;22;20154;-88
2023/04/14 13:08:27;;;;;;;2.80;1.63;;;;;;;;;;6265960;22;20154;-87
2023/04/14 13:11:31;;;;;;;1.87;1.60;;;;;;;;;;6273029;22;20627;-88
2023/04/14 13:14:35;;;;;;;4.37;2.80;;;;;;;;;;6275873;22;20658;-88
2023/04/14 13:17:39;;;;;;;2.50;1.60;;;;;;;;;;6283180;22;20154;-91
2023/04/14 13:20:54;;;;;;;2.97;2.23;;;;;;;;;;6265180;22;20150;-90
2023/04/14 13:23:58;;;;;;;3.17;2.07;;;;;;;;;;6260840;22;20178;-90
2023/04/14 13:27:03;;;;;;;3.80;3.30;;;;;;;;;;6255479;22;20170;-90
2023/04/14 13:30:08;;;;;;;6.47;2.10;;;;;;;;;;6255486;22;20162;-91
2023/04/14 13:33:12;;;;;;;4.07;3.10;;;;;;;;;;6264228;22;20614;-90
2023/04/14 13:36:16;;;;;;;3.40;2.50;;;;;;;;;;6265557;22;20154;-88
2023/04/14 13:39:21;;;;;;;3.23;2.30;;;;;;;;;;6262887;22;20177;-88
2023/04/14 13:42:27;;;;;;;5.90;3.90;;;;;;;;;;6265103;22;20146;-88
2023/04/14 13:45:32;;;;;;;3.80;2.20;;;;;;;;;;6257340;22;20631;-85
2023/04/14 13:48:37;;;;;;;3.63;2.20;;;;;;;;;;6267320;22;20457;-85
2023/04/14 13:51:41;;;;;;;3.67;1.70;;;;;;;;;;6267102;22;20473;-84
2023/04/14 13:54:45;;;;;;;4.77;2.10;;;;;;;;;;6293267;22;20186;-86
2023/04/14 13:57:49;;;;;;;4.37;1.80;;;;;;;;;;6266124;22;20154;-85
2023/04/14 14:00:54;;;;;;;2.23;1.80;;;;;;;;;;6283197;22;20583;-84
2023/04/14 14:03:58;;;;;;;2.03;1.83;;;;;;;;;;6274147;22;20480;-84
2023/04/14 14:07:02;;;;;;;2.17;1.70;;;;;;;;;;6284994;22;20151;-83
2023/04/14 14:10:09;;;;;;;5.13;1.87;;;;;;;;;;6302617;22;20595;-83
2023/04/14 14:13:13;;;;;;;3.10;1.63;;;;;;;;;;6283374;22;20181;-83
2023/04/14 14:16:20;;;;;;;4.63;2.37;;;;;;;;;;6284734;22;20150;-83
2023/04/14 14:19:24;;;;;;;2.47;1.93;;;;;;;;;;6303145;22;20154;-83
2023/04/14 14:43:10;;;;;;;5.70;4.60;;;;;;;;;;6268998;22;20182;-85
2023/04/14 14:46:16;;;;;;;4.53;2.80;;;;;;;;;;6264884;22;20151;-85
2023/04/14 14:49:20;;;;;;;2.20;2.00;;;;;;;;;;6248724;22;20162;-85
2023/04/14 14:52:24;;;;;;;3.03;2.03;;;;;;;;;;6273465;22;20170;-84
2023/04/14 14:55:29;;;;;;;2.40;1.83;;;;;;;;;;6274766;22;20165;-87
2023/04/14 14:58:33;;;;;;;4.07;2.10;;;;;;;;;;6267565;22;20150;-85
2023/04/14 15:01:37;;;;;;;3.53;1.87;;;;;;;;;;6283370;22;20154;-87
2023/04/14 15:04:41;;;;;;;10.10;4.50;;;;;;;;;;6257382;22;20190;-88
2023/04/14 15:07:45;;;;;;;4.93;2.60;;;;;;;;;;6265284;22;20154;-87
2023/04/14 15:10:50;;;;;;;3.57;2.30;;;;;;;;;;6265393;22;20154;-88
2023/04/14 15:14:11;;;;;;;3.70;2.30;;;;;;;;;;6251966;22;20210;-88
2023/04/14 15:17:47;;;;;;;2.93;1.67;;;;;;;;;;6305716;22;20159;-89
2023/04/14 15:21:22;;;;;;;4.37;2.40;;;;;;;;;;6290347;22;20623;-88
2023/04/14 15:24:27;;;;;;;3.90;2.03;;;;;;;;;;6254944;22;20481;-88
2023/04/14 15:27:32;;;;;;;2.97;1.77;;;;;;;;;;6282623;22;20465;-88
2023/04/14 15:30:36;;;;;;;2.73;1.93;;;;;;;;;;6300931;22;20150;-88
2023/04/14 15:33:43;;;;;;;7.80;3.20;;;;;;;;;;6278869;22;20197;-88
2023/04/14 15:36:47;;;;;;;3.00;1.70;;;;;;;;;;6247376;22;20188;-86
2023/04/14 15:39:51;;;;;;;11.80;3.90;;;;;;;;;;6264353;22;20583;-86
2023/04/14 15:42:56;;;;;;;4.63;1.70;;;;;;;;;;6264633;22;20146;-86
2023/04/14 15:46:00;;;;;;;3.60;1.80;;;;;;;;;;6281728;22;20154;-86
2023/04/14 15:49:04;;;;;;;4.77;2.00;;;;;;;;;;6254657;22;20162;-85
2023/04/14 15:52:08;;;;;;;11.53;3.37;;;;;;;;;;6264399;22;20154;-86
2023/04/14 15:55:12;;;;;;;7.33;3.63;;;;;;;;;;6271731;22;20178;-86
2023/04/14 15:58:18;;;;;;;5.63;3.07;;;;;;;;;;6281684;22;20154;-85
2023/04/14 16:01:22;;;;;;;3.93;2.13;;;;;;;;;;6264093;22;20171;-85
2023/04/14 16:04:27;;;;;;;4.30;2.20;;;;;;;;;;6257990;22;20185;-86
2023/04/14 16:07:52;;;;;;;3.27;1.80;;;;;;;;;;6281932;22;20154;-86
2023/04/14 16:11:02;;;;;;;4.57;2.33;;;;;;;;;;6265500;22;20151;-85
2023/04/14 16:14:06;;;;;;;5.57;2.50;;;;;;;;;;6276065;22;20653;-85
2023/04/14 16:17:11;;;;;;;4.50;2.10;;;;;;;;;;6264131;22;20591;-85
2023/04/14 16:20:17;;;;;;;2.73;2.17;;;;;;;;;;6281370;22;20151;-85
2023/04/14 16:23:21;;;;;;;2.23;1.40;;;;;;;;;;6253539;22;20492;-85
2023/04/14 16:26:25;;;;;;;4.53;1.70;;;;;;;;;;6266198;22;20154;-85
2023/04/14 16:29:29;;;;;;;3.63;1.70;;;;;;;;;;6272939;22;20630;-85
2023/04/14 16:32:33;;;;;;;1.70;1.43;;;;;;;;;;6283498;22;20153;-86
2023/04/14 16:47:02;;;;;;;3.10;1.60;;;;;;;;;;6213873;23;20179;-85
2023/04/14 16:50:07;;;;;;;3.10;1.57;;;;;;;;;;6204930;23;20152;-85
2023/04/14 16:53:12;;;;;;;2.83;1.63;;;;;;;;;;6220901;22;20151;-86
2023/04/14 16:56:16;;;;;;;2.57;1.50;;;;;;;;;;6204828;23;20152;-86
2023/04/14 16:59:21;;;;;;;2.23;1.60;;;;;;;;;;6221956;23;20600;-85
2023/04/14 17:02:25;;;;;;;5.40;1.90;;;;;;;;;;6221702;23;20593;-87
2023/04/14 17:05:30;;;;;;;2.93;1.60;;;;;;;;;;6204748;23;20601;-86
2023/04/14 17:08:35;;;;;;;3.23;1.60;;;;;;;;;;6205082;23;20430;-86
2023/04/14 17:11:41;;;;;;;4.97;1.53;;;;;;;;;;6222066;23;20152;-86
2023/04/14 17:14:45;;;;;;;2.63;1.40;;;;;;;;;;6197264;23;20195;-86
2023/04/14 17:17:49;;;;;;;2.13;1.57;;;;;;;;;;6222038;23;20497;-86
2023/04/14 17:20:53;;;;;;;1.70;1.53;;;;;;;;;;6221875;23;20155;-86
2023/04/14 17:23:57;;;;;;;3.30;1.60;;;;;;;;;;6200076;22;20180;-86
2023/04/14 17:27:02;;;;;;;2.10;1.70;;;;;;;;;;6204711;23;20155;-86
2023/04/14 17:30:06;;;;;;;3.17;1.20;;;;;;;;;;6204881;23;20423;-86
2023/04/14 17:33:16;;;;;;;3.53;1.70;;;;;;;;;;6220549;22;20155;-86
2023/04/14 17:36:20;;;;;;;1.50;1.30;;;;;;;;;;6221637;23;20151;-86
2023/04/14 17:39:26;;;;;;;4.93;1.30;;;;;;;;;;6221688;23;20155;-86
2023/04/14 17:42:35;;;;;;;2.90;1.23;;;;;;;;;;6204428;23;20152;-88
2023/04/14 17:45:42;;;;;;;2.23;1.40;;;;;;;;;;6204168;23;20484;-87
2023/04/14 17:48:47;;;;;;;2.47;1.70;;;;;;;;;;6205253;23;20488;-86
2023/04/14 17:51:54;;;;;;;3.07;1.80;;;;;;;;;;6204182;23;20156;-86
2023/04/14 17:54:58;;;;;;;4.03;1.60;;;;;;;;;;6212742;23;20632;-86
2023/04/14 17:58:02;;;;;;;5.50;1.80;;;;;;;;;;6238823;23;20155;-86
2023/04/14 18:01:06;;;;;;;1.93;1.80;;;;;;;;;;6238813;23;20151;-86
2023/04/14 18:04:10;;;;;;;3.10;1.40;;;;;;;;;;6215661;23;20187;-86
2023/04/14 18:07:43;;;;;;;2.10;1.73;;;;;;;;;;6204307;23;20156;-86
2023/04/14 18:10:47;;;;;;;2.37;1.77;;;;;;;;;;6204043;23;20593;-86
2023/04/14 18:13:52;;;;;;;1.57;1.47;;;;;;;;;;6220661;22;20305;-86
2023/04/14 18:16:57;;;;;;;1.90;1.43;;;;;;;;;;6210392;23;20155;-85
2023/04/14 18:20:04;;;;;;;2.00;1.53;;;;;;;;;;6212658;23;20148;-86
2023/04/14 18:23:09;;;;;;;1.63;1.50;;;;;;;;;;6220743;22;20168;-86
2023/04/14 18:26:13;;;;;;;3.47;1.53;;;;;;;;;;6211143;23;20143;-86
2023/04/14 18:29:17;;;;;;;2.00;1.80;;;;;;;;;;6227727;23;20156;-85
2023/04/14 18:32:24;;;;;;;2.43;1.80;;;;;;;;;;6209165;23;20156;-85
2023/04/14 18:35:28;;;;;;;2.50;2.20;;;;;;;;;;6211139;23;20490;-82
2023/04/14 18:38:32;;;;;;;3.40;2.50;;;;;;;;;;6222436;23;20152;-89
2023/04/14 18:41:37;;;;;;;4.40;2.97;;;;;;;;;;6221110;23;20147;-90
2023/04/14 18:44:41;;;;;;;4.90;3.13;;;;;;;;;;6194220;23;20183;-87
2023/04/14 18:47:46;;;;;;;3.70;2.80;;;;;;;;;;6220926;23;20151;-87
2023/04/14 18:51:00;;;;;;;3.77;2.70;;;;;;;;;;6222564;23;20156;-87
2023/04/14 18:54:04;;;;;;;4.00;2.93;;;;;;;;;;6234429;23;20199;-87
2023/04/14 18:57:09;;;;;;;3.30;2.30;;;;;;;;;;6213652;23;20171;-87
2023/04/14 19:00:16;;;;;;;6.77;2.50;;;;;;;;;;6223435;23;20160;-87
2023/04/14 19:06:56;;;;;;;3.80;2.17;;;;;;;;;;6222874;23;20152;-87
2023/04/14 19:10:41;;;;;;;3.80;2.50;;;;;;;;;;6223758;23;20485;-85
2023/04/14 19:14:16;;;;;;;3.37;2.50;;;;;;;;;;6235296;22;20302;-85
2023/04/14 19:17:20;;;;;;;4.67;2.90;;;;;;;;;;6239881;23;20155;-85
2023/04/14 19:20:25;;;;;;;6.00;2.90;;;;;;;;;;6206649;23;20151;-85
2023/04/14 19:23:29;;;;;;;3.43;2.90;;;;;;;;;;6239682;22;20187;-85
2023/04/14 19:26:36;;;;;;;4.50;3.37;;;;;;;;;;6240800;23;20147;-85
2023/04/14 19:29:41;;;;;;;10.30;3.70;;;;;;;;;;6222894;23;20459;-85
2023/04/14 19:32:47;;;;;;;6.03;3.70;;;;;;;;;;6223218;23;20156;-85
2023/04/14 19:35:51;;;;;;;5.23;3.50;;;;;;;;;;6223115;23;20183;-85
2023/04/14 19:38:56;;;;;;;4.03;3.37;;;;;;;;;;6201913;23;20175;-85
2023/04/14 19:42:00;;;;;;;4.23;3.00;;;;;;;;;;6223122;23;20156;-86
2023/04/14 19:45:11;;;;;;;5.97;3.00;;;;;;;;;;6197502;23;20188;-85
2023/04/14 19:48:20;;;;;;;6.33;3.13;;;;;;;;;;6223567;23;20156;-85
2023/04/14 19:51:26;;;;;;;6.37;3.60;;;;;;;;;;6206461;23;20156;-84
2023/04/14 19:54:31;;;;;;;4.37;3.63;;;;;;;;;;6216518;23;20199;-85
2023/04/14 19:57:38;;;;;;;6.57;4.17;;;;;;;;;;6222901;23;20153;-85
2023/04/14 20:00:43;;;;;;;5.63;3.93;;;;;;;;;;6210780;23;20156;-85
2023/04/14 20:03:47;;;;;;;9.63;4.40;;;;;;;;;;6222292;22;20196;-85
2023/04/14 20:06:52;;;;;;;6.03;4.03;;;;;;;;;;6208491;23;20152;-87
2023/04/14 20:10:00;;;;;;;5.83;4.13;;;;;;;;;;6197801;23;20175;-88
2023/04/14 20:13:09;;;;;;;6.47;4.27;;;;;;;;;;6241527;22;20585;-86
2023/04/14 20:16:14;;;;;;;6.93;4.20;;;;;;;;;;6241327;23;20179;-87
2023/04/14 20:19:21;;;;;;;6.40;4.03;;;;;;;;;;6206726;23;20152;-86
2023/04/14 20:22:26;;;;;;;5.10;3.70;;;;;;;;;;6206575;23;20151;-86
2023/04/14 20:25:30;;;;;;;6.83;4.40;;;;;;;;;;6241470;23;20147;-87
2023/04/14 20:28:35;;;;;;;6.07;4.27;;;;;;;;;;6214364;23;20171;-87
2023/04/14 20:31:40;;;;;;;6.97;4.43;;;;;;;;;;6206033;23;20155;-86
2023/04/14 20:34:44;;;;;;;4.47;4.00;;;;;;;;;;6232720;23;20648;-86
2023/04/14 20:37:48;;;;;;;6.00;4.47;;;;;;;;;;6206092;23;20155;-86
2023/04/14 20:40:53;;;;;;;5.27;4.47;;;;;;;;;;6205566;23;20151;-86
2023/04/14 20:43:58;;;;;;;7.23;5.37;;;;;;;;;;6196983;22;20195;-86
2023/04/14 20:47:02;;;;;;;8.37;5.43;;;;;;;;;;6196856;23;20493;-86
2023/04/14 20:50:07;;;;;;;7.83;5.27;;;;;;;;;;6208304;23;20597;-86
2023/04/14 20:53:12;;;;;;;9.23;5.10;;;;;;;;;;6222406;22;20157;-86
2023/04/14 20:56:16;;;;;;;8.93;5.80;;;;;;;;;;6196489;23;20188;-86
2023/04/14 20:59:26;;;;;;;6.20;5.00;;;;;;;;;;6223461;23;20156;-86
2023/04/14 21:02:30;;;;;;;7.77;5.00;;;;;;;;;;6241671;23;20152;-86
2023/04/14 21:05:34;;;;;;;6.50;4.57;;;;;;;;;;6223134;23;20584;-86
2023/04/14 21:08:38;;;;;;;5.80;3.87;;;;;;;;;;6222896;23;20152;-86
2023/04/14 21:11:42;;;;;;;6.80;4.43;;;;;;;;;;6205949;23;20152;-86
2023/04/14 21:14:46;;;;;;;5.23;3.90;;;;;;;;;;6196640;23;20198;-86
2023/04/14 21:17:51;;;;;;;6.50;3.77;;;;;;;;;;6205548;23;20484;-86
2023/04/14 21:20:55;;;;;;;5.27;4.20;;;;;;;;;;6205454;23;20483;-86
2023/04/14 21:23:59;;;;;;;6.20;3.70;;;;;;;;;;6218006;23;20187;-86
2023/04/14 21:27:03;;;;;;;6.97;3.60;;;;;;;;;;6205634;23;20455;-86
2023/04/14 21:30:10;;;;;;;6.23;4.30;;;;;;;;;;6247998;23;20536;-86
2023/04/14 21:33:14;;;;;;;7.43;4.60;;;;;;;;;;6204459;22;20156;-86
2023/04/14 21:36:19;;;;;;;7.40;4.23;;;;;;;;;;6212883;23;20643;-86
2023/04/14 21:39:27;;;;;;;7.13;3.77;;;;;;;;;;6225150;23;20156;-86
2023/04/14 21:42:31;;;;;;;7.33;3.90;;;;;;;;;;6224725;23;20155;-86
2023/04/14 21:45:35;;;;;;;7.43;3.57;;;;;;;;;;6222983;23;20171;-86
2023/04/14 21:48:39;;;;;;;5.57;3.80;;;;;;;;;;6224459;23;20156;-86
2023/04/14 21:51:44;;;;;;;5.03;4.10;;;;;;;;;;6213896;23;20163;-86
2023/04/14 21:54:49;;;;;;;9.30;5.10;;;;;;;;;;6196189;23;20202;-86
2023/04/14 21:57:54;;;;;;;7.73;5.10;;;;;;;;;;6207425;23;20147;-86
2023/04/14 22:00:59;;;;;;;9.93;5.70;;;;;;;;;;6226746;23;20159;-86
2023/04/14 22:04:03;;;;;;;7.83;5.33;;;;;;;;;;6202389;23;20187;-86
2023/04/14 22:07:08;;;;;;;7.93;6.27;;;;;;;;;;6206000;23;20147;-86
2023/04/14 22:10:13;;;;;;;8.73;6.57;;;;;;;;;;6222685;23;20155;-86
2023/04/14 22:13:17;;;;;;;8.80;6.53;;;;;;;;;;6203846;22;20187;-86
2023/04/14 22:16:21;;;;;;;8.90;5.50;;;;;;;;;;6205405;23;20183;-86
2023/04/14 22:19:27;;;;;;;7.20;5.17;;;;;;;;;;6205198;23;20593;-86
2023/04/14 22:22:31;;;;;;;8.90;5.50;;;;;;;;;;6221927;23;20175;-86
2023/04/14 22:25:36;;;;;;;6.80;4.40;;;;;;;;;;6205587;23;20148;-86
2023/04/14 22:28:40;;;;;;;6.10;4.80;;;;;;;;;;6222207;23;20152;-86
2023/04/14 22:31:45;;;;;;;6.00;4.90;;;;;;;;;;6240625;23;20152;-86
2023/04/14 22:34:49;;;;;;;6.40;5.20;;;;;;;;;;6215063;23;20194;-87
2023/04/14 22:37:53;;;;;;;11.37;5.87;;;;;;;;;;6241182;23;20155;-87
2023/04/14 22:40:57;;;;;;;7.80;5.37;;;;;;;;;;6207311;23;20159;-87
2023/04/14 22:44:04;;;;;;;6.23;5.17;;;;;;;;;;6202280;23;20628;-87
2023/04/14 22:47:09;;;;;;;6.00;5.33;;;;;;;;;;6198042;23;20176;-87
2023/04/14 22:50:14;;;;;;;9.43;5.87;;;;;;;;;;6223538;23;20601;-87
2023/04/14 22:53:18;;;;;;;7.27;5.17;;;;;;;;;;6196476;22;20191;-87
2023/04/14 22:56:22;;;;;;;8.23;5.80;;;;;;;;;;6195602;23;20598;-87
2023/04/14 22:59:26;;;;;;;8.37;5.33;;;;;;;;;;6223139;23;20151;-87
2023/04/14 23:02:31;;;;;;;8.30;5.27;;;;;;;;;;6222408;23;20151;-88
2023/04/14 23:05:35;;;;;;;9.87;5.83;;;;;;;;;;6221874;23;20148;-87
2023/04/14 23:08:38;;;;;;;7.63;5.63;;;;;;;;;;6204606;23;20489;-88
2023/04/14 23:11:43;;;;;;;7.03;5.10;;;;;;;;;;6205084;23;20151;-87
2023/04/14 23:14:47;;;;;;;6.07;4.77;;;;;;;;;;6214079;23;20187;-88
2023/04/14 23:17:51;;;;;;;7.37;4.73;;;;;;;;;;6204904;23;20156;-87
2023/04/14 23:20:56;;;;;;;7.80;4.83;;;;;;;;;;6222393;23;20155;-87
2023/04/14 23:24:00;;;;;;;8.20;5.43;;;;;;;;;;6217511;23;20191;-88
2023/04/14 23:27:04;;;;;;;6.63;5.50;;;;;;;;;;6221863;23;20477;-87
2023/04/14 23:30:09;;;;;;;7.33;5.63;;;;;;;;;;6194420;23;20175;-88
2023/04/14 23:33:13;;;;;;;8.83;5.90;;;;;;;;;;6204502;22;20152;-87
2023/04/14 23:36:18;;;;;;;11.57;6.73;;;;;;;;;;6223965;23;20179;-88
2023/04/14 23:39:22;;;;;;;10.23;6.90;;;;;;;;;;6224230;23;20155;-87
2023/04/14 23:42:26;;;;;;;13.20;7.20;;;;;;;;;;6206381;23;20151;-87
2023/04/14 23:45:35;;;;;;;7.93;5.93;;;;;;;;;;6213798;23;20474;-87
2023/04/14 23:48:39;;;;;;;9.43;6.30;;;;;;;;;;6207550;23;20496;-87
2023/04/14 23:51:44;;;;;;;8.83;5.60;;;;;;;;;;6225438;23;20155;-87
2023/04/14 23:54:48;;;;;;;8.27;5.70;;;;;;;;;;6217449;23;20667;-87
2023/04/14 23:57:53;;;;;;;10.67;6.00;;;;;;;;;;6226827;23;20151;-87
